Time,TemperatureF,DewpointF,PressureIn,WindDirection,WindDirectionDegrees,WindSpeedMPH,WindSpeedGustMPH,Humidity,HourlyPrecipIn,Conditions,Clouds,dailyrainin,SoftwareType,DateUTC
2013-01-18 00:02:00,23.5,13.1,30.56,NNW,346,1.0,3.0,64,0.00,,,0.00,Wunderground v.1.15,2013-01-18 07:02:00,
2013-01-18 00:12:00,23.5,12.7,30.56,NNW,346,0.0,2.0,63,0.00,,,0.00,Wunderground v.1.15,2013-01-18 07:12:00,
2013-01-18 00:22:00,22.5,12.1,30.56,NNW,346,0.0,1.0,64,0.00,,,0.00,Wunderground v.1.15,2013-01-18 07:22:00,
2013-01-18 00:32:00,22.7,12.7,30.56,NNW,346,0.0,2.0,65,0.00,,,0.00,Wunderground v.1.15,2013-01-18 07:32:00,
2013-01-18 00:42:00,22.9,13.2,30.56,NNW,346,1.0,1.0,66,0.00,,,0.00,Wunderground v.1.15,2013-01-18 07:42:00,
2013-01-18 00:52:00,22.5,12.8,30.55,NNW,346,0.0,0.0,66,0.00,,,0.00,Wunderground v.1.15,2013-01-18 07:52:00,
2013-01-18 01:02:00,22.2,12.6,30.55,NNW,346,0.0,1.0,66,0.00,,,0.00,Wunderground v.1.15,2013-01-18 08:02:00,
2013-01-18 01:12:00,22.4,13.1,30.55,NNW,346,1.0,1.0,67,0.00,,,0.00,Wunderground v.1.15,2013-01-18 08:12:00,
2013-01-18 01:22:00,22.5,12.8,30.55,NNW,346,0.0,2.0,66,0.00,,,0.00,Wunderground v.1.15,2013-01-18 08:22:00,
2013-01-18 01:32:00,22.4,12.8,30.55,NNW,346,0.0,2.0,66,0.00,,,0.00,Wunderground v.1.15,2013-01-18 08:32:00,
2013-01-18 01:42:00,21.3,12.0,30.55,NNW,346,0.0,1.0,67,0.00,,,0.00,Wunderground v.1.15,2013-01-18 08:42:00,
2013-01-18 01:52:00,20.8,11.9,30.55,NNW,346,0.0,1.0,68,0.00,,,0.00,Wunderground v.1.15,2013-01-18 08:52:00,
2013-01-18 02:02:00,20.6,12.0,30.55,NNW,346,0.0,1.0,69,0.00,,,0.00,Wunderground v.1.15,2013-01-18 09:02:00,
2013-01-18 02:12:00,20.3,11.7,30.55,NNW,346,0.0,0.0,69,0.00,,,0.00,Wunderground v.1.15,2013-01-18 09:12:00,
2013-01-18 02:22:00,20.3,12.1,30.55,NNW,346,0.0,1.0,70,0.00,,,0.00,Wunderground v.1.15,2013-01-18 09:22:00,
2013-01-18 02:32:00,20.3,12.4,30.55,NNW,347,1.0,1.0,71,0.00,,,0.00,Wunderground v.1.15,2013-01-18 09:32:00,
2013-01-18 02:42:00,20.5,12.9,30.55,NNW,347,0.0,1.0,72,0.00,,,0.00,Wunderground v.1.15,2013-01-18 09:42:00,
2013-01-18 02:52:00,20.0,12.1,30.54,NNW,347,0.0,1.0,71,0.00,,,0.00,Wunderground v.1.15,2013-01-18 09:52:00,
2013-01-18 03:02:00,19.4,11.5,30.53,NNW,347,0.0,1.0,71,0.00,,,0.00,Wunderground v.1.15,2013-01-18 10:02:00,
2013-01-18 03:12:00,18.9,11.0,30.53,NNW,347,0.0,1.0,71,0.00,,,0.00,Wunderground v.1.15,2013-01-18 10:12:00,
2013-01-18 03:22:00,18.8,11.3,30.53,NNW,347,0.0,1.0,72,0.00,,,0.00,Wunderground v.1.15,2013-01-18 10:22:00,
2013-01-18 03:32:00,18.6,11.1,30.53,NNW,347,1.0,2.0,72,0.00,,,0.00,Wunderground v.1.15,2013-01-18 10:32:00,
2013-01-18 03:42:00,18.3,11.1,30.53,NNW,347,1.0,2.0,73,0.00,,,0.00,Wunderground v.1.15,2013-01-18 10:42:00,
2013-01-18 03:52:00,18.3,11.1,30.53,NNW,347,1.0,1.0,73,0.00,,,0.00,Wunderground v.1.15,2013-01-18 10:52:00,
2013-01-18 04:02:00,18.3,11.1,30.52,NNW,347,1.0,1.0,73,0.00,,,0.00,Wunderground v.1.15,2013-01-18 11:02:00,
2013-01-18 04:12:00,18.3,11.4,30.52,NNE,19,1.0,1.0,74,0.00,,,0.00,Wunderground v.1.15,2013-01-18 11:12:00,
2013-01-18 04:22:00,18.1,11.2,30.52,NNE,19,1.0,2.0,74,0.00,,,0.00,Wunderground v.1.15,2013-01-18 11:22:00,
2013-01-18 04:32:00,18.0,11.4,30.51,NNE,20,1.0,2.0,75,0.00,,,0.00,Wunderground v.1.15,2013-01-18 11:32:00,
2013-01-18 04:42:00,18.0,11.4,30.51,NNE,21,1.0,3.0,75,0.00,,,0.00,Wunderground v.1.15,2013-01-18 11:42:00,
2013-01-18 04:52:00,18.3,11.7,30.51,NNE,21,1.0,3.0,75,0.00,,,0.00,Wunderground v.1.15,2013-01-18 11:52:00,
2013-01-18 05:02:00,18.4,11.5,30.51,NNE,22,2.0,3.0,74,0.00,,,0.00,Wunderground v.1.15,2013-01-18 12:02:00,
2013-01-18 05:12:00,18.3,11.4,30.51,NNE,26,2.0,4.0,74,0.00,,,0.00,Wunderground v.1.15,2013-01-18 12:12:00,
2013-01-18 05:22:00,18.4,11.5,30.51,NNE,27,2.0,4.0,74,0.00,,,0.00,Wunderground v.1.15,2013-01-18 12:22:00,
2013-01-18 05:32:00,18.6,11.7,30.51,NNE,25,2.0,6.0,74,0.00,,,0.00,Wunderground v.1.15,2013-01-18 12:32:00,
2013-01-18 05:42:00,18.4,11.5,30.51,NNE,25,3.0,6.0,74,0.00,,,0.00,Wunderground v.1.15,2013-01-18 12:42:00,
2013-01-18 05:52:00,18.4,11.5,30.51,NNE,26,3.0,3.0,74,0.00,,,0.00,Wunderground v.1.15,2013-01-18 12:52:00,
2013-01-18 06:02:00,17.8,10.6,30.51,NNE,26,1.0,4.0,73,0.00,,,0.00,Wunderground v.1.15,2013-01-18 13:02:00,
2013-01-18 06:12:00,17.7,10.5,30.51,NNE,26,1.0,1.0,73,0.00,,,0.00,Wunderground v.1.15,2013-01-18 13:12:00,
2013-01-18 06:22:00,17.8,10.9,30.51,NNE,26,1.0,1.0,74,0.00,,,0.00,Wunderground v.1.15,2013-01-18 13:22:00,
2013-01-18 06:32:00,17.8,10.6,30.51,NNE,26,1.0,3.0,73,0.00,,,0.00,Wunderground v.1.15,2013-01-18 13:32:00,
2013-01-18 06:42:00,17.3,10.1,30.51,NNE,26,2.0,2.0,73,0.00,,,0.00,Wunderground v.1.15,2013-01-18 13:42:00,
2013-01-18 06:52:00,17.7,10.8,30.51,NNE,26,1.0,4.0,74,0.00,,,0.00,Wunderground v.1.15,2013-01-18 13:52:00,
2013-01-18 07:02:00,17.5,10.9,30.51,NNE,26,1.0,3.0,75,0.00,,,0.00,Wunderground v.1.15,2013-01-18 14:02:00,
2013-01-18 07:12:00,17.5,10.9,30.51,NNE,26,2.0,3.0,75,0.00,,,0.00,Wunderground v.1.15,2013-01-18 14:12:00,
2013-01-18 07:22:00,17.5,11.2,30.51,NNE,28,3.0,5.0,76,0.00,,,0.00,Wunderground v.1.15,2013-01-18 14:22:00,
2013-01-18 07:32:00,17.3,11.0,30.52,NNE,28,2.0,2.0,76,0.00,,,0.00,Wunderground v.1.15,2013-01-18 14:32:00,
2013-01-18 07:42:00,17.5,11.2,30.52,NNE,28,1.0,3.0,76,0.00,,,0.00,Wunderground v.1.15,2013-01-18 14:42:00,
2013-01-18 07:52:00,18.1,11.8,30.52,NNE,30,2.0,2.0,76,0.00,,,0.00,Wunderground v.1.15,2013-01-18 14:52:00,
2013-01-18 08:02:00,19.1,12.8,30.52,NNE,30,2.0,2.0,76,0.00,,,0.00,Wunderground v.1.15,2013-01-18 15:02:00,
2013-01-18 08:12:00,21.3,14.3,30.52,NNE,30,1.0,3.0,74,0.00,,,0.00,Wunderground v.1.15,2013-01-18 15:12:00,
2013-01-18 08:22:00,23.8,15.1,30.52,NNE,32,3.0,3.0,69,0.00,,,0.00,Wunderground v.1.15,2013-01-18 15:22:00,
2013-01-18 08:32:00,25.4,15.3,30.52,NNE,25,3.0,7.0,65,0.00,,,0.00,Wunderground v.1.15,2013-01-18 15:32:00,
2013-01-18 08:42:00,26.6,15.7,30.52,NE,55,3.0,7.0,63,0.00,,,0.00,Wunderground v.1.15,2013-01-18 15:42:00,
2013-01-18 08:52:00,27.3,15.2,30.53,NE,36,4.0,4.0,60,0.00,,,0.00,Wunderground v.1.15,2013-01-18 15:52:00,
2013-01-18 09:02:00,28.2,15.3,30.53,NE,47,3.0,4.0,58,0.00,,,0.00,Wunderground v.1.15,2013-01-18 16:02:00,
2013-01-18 09:12:00,28.7,15.8,30.53,NE,42,4.0,4.0,58,0.00,,,0.00,Wunderground v.1.15,2013-01-18 16:12:00,
2013-01-18 09:22:00,29.5,16.1,30.53,NE,44,3.0,6.0,57,0.00,,,0.00,Wunderground v.1.15,2013-01-18 16:22:00,
2013-01-18 09:32:00,30.3,16.0,30.54,NE,50,4.0,6.0,55,0.00,,,0.00,Wunderground v.1.15,2013-01-18 16:32:00,
2013-01-18 09:42:00,31.3,16.6,30.54,NE,50,4.0,7.0,54,0.00,,,0.00,Wunderground v.1.15,2013-01-18 16:42:00,
2013-01-18 09:52:00,32.4,16.7,30.54,NE,49,4.0,7.0,52,0.00,,,0.00,Wunderground v.1.15,2013-01-18 16:52:00,
2013-01-18 10:02:00,33.4,16.3,30.54,NNE,24,4.0,10.0,49,0.00,,,0.00,Wunderground v.1.15,2013-01-18 17:02:00,
2013-01-18 10:12:00,34.0,15.9,30.54,NE,35,5.0,9.0,47,0.00,,,0.00,Wunderground v.1.15,2013-01-18 17:12:00,
2013-01-18 10:22:00,35.2,16.5,30.53,NNE,32,4.0,4.0,46,0.00,,,0.00,Wunderground v.1.15,2013-01-18 17:22:00,
2013-01-18 10:32:00,35.9,16.6,30.53,North,9,3.0,7.0,45,0.00,,,0.00,Wunderground v.1.15,2013-01-18 17:32:00,
2013-01-18 10:42:00,37.0,17.1,30.53,NNE,26,2.0,6.0,44,0.00,,,0.00,Wunderground v.1.15,2013-01-18 17:42:00,
2013-01-18 10:52:00,38.0,16.4,30.51,NE,56,3.0,5.0,41,0.00,,,0.00,Wunderground v.1.15,2013-01-18 17:52:00,
2013-01-18 11:02:00,38.3,16.1,30.50,ENE,59,2.0,6.0,40,0.00,,,0.00,Wunderground v.1.15,2013-01-18 18:02:00,
2013-01-18 11:12:00,39.2,16.3,30.50,NNE,31,2.0,2.0,39,0.00,,,0.00,Wunderground v.1.15,2013-01-18 18:12:00,
2013-01-18 11:22:00,40.3,16.7,30.49,NE,52,1.0,1.0,38,0.00,,,0.00,Wunderground v.1.15,2013-01-18 18:22:00,
2013-01-18 11:32:00,41.3,16.3,30.48,ENE,72,1.0,4.0,36,0.00,,,0.00,Wunderground v.1.15,2013-01-18 18:32:00,
2013-01-18 11:42:00,42.3,16.6,30.48,East,92,1.0,1.0,35,0.00,,,0.00,Wunderground v.1.15,2013-01-18 18:42:00,
2013-01-18 11:52:00,43.1,16.6,30.46,East,90,1.0,1.0,34,0.00,,,0.00,Wunderground v.1.15,2013-01-18 18:52:00,
2013-01-18 12:02:00,44.1,16.8,30.45,ESE,109,1.0,2.0,33,0.00,,,0.00,Wunderground v.1.15,2013-01-18 19:02:00,
2013-01-18 12:12:00,44.5,16.4,30.45,ESE,121,1.0,4.0,32,0.00,,,0.00,Wunderground v.1.15,2013-01-18 19:12:00,
2013-01-18 12:22:00,45.1,17.0,30.44,West,259,1.0,1.0,32,0.00,,,0.00,Wunderground v.1.15,2013-01-18 19:22:00,
2013-01-18 12:32:00,45.8,16.1,30.42,SSW,200,2.0,6.0,30,0.00,,,0.00,Wunderground v.1.15,2013-01-18 19:32:00,
2013-01-18 12:42:00,46.4,15.8,30.42,SW,231,2.0,5.0,29,0.00,,,0.00,Wunderground v.1.15,2013-01-18 19:42:00,
2013-01-18 12:52:00,46.8,16.2,30.41,SE,144,2.0,6.0,29,0.00,,,0.00,Wunderground v.1.15,2013-01-18 19:52:00,
2013-01-18 13:02:00,47.4,15.0,30.40,South,171,2.0,6.0,27,0.00,,,0.00,Wunderground v.1.15,2013-01-18 20:02:00,
2013-01-18 13:12:00,47.9,15.5,30.40,SSE,160,3.0,7.0,27,0.00,,,0.00,Wunderground v.1.15,2013-01-18 20:12:00,
2013-01-18 13:22:00,48.6,16.1,30.38,South,176,3.0,7.0,27,0.00,,,0.00,Wunderground v.1.15,2013-01-18 20:22:00,
2013-01-18 13:32:00,48.6,15.2,30.38,SSE,163,3.0,3.0,26,0.00,,,0.00,Wunderground v.1.15,2013-01-18 20:32:00,
2013-01-18 13:42:00,49.6,16.1,30.38,SSW,198,2.0,6.0,26,0.00,,,0.00,Wunderground v.1.15,2013-01-18 20:42:00,
2013-01-18 13:52:00,49.8,16.2,30.37,SSW,207,3.0,3.0,26,0.00,,,0.00,Wunderground v.1.15,2013-01-18 20:52:00,
2013-01-18 14:02:00,50.2,15.7,30.36,South,191,3.0,3.0,25,0.00,,,0.00,Wunderground v.1.15,2013-01-18 21:02:00,
2013-01-18 14:12:00,50.7,16.1,30.36,SSE,148,3.0,3.0,25,0.00,,,0.00,Wunderground v.1.15,2013-01-18 21:12:00,
2013-01-18 14:22:00,50.8,16.2,30.36,South,184,3.0,3.0,25,0.00,,,0.00,Wunderground v.1.15,2013-01-18 21:22:00,
2013-01-18 14:32:00,51.1,15.5,30.35,SSW,207,4.0,4.0,24,0.00,,,0.00,Wunderground v.1.15,2013-01-18 21:32:00,
2013-01-18 14:42:00,51.3,15.7,30.35,South,189,4.0,4.0,24,0.00,,,0.00,Wunderground v.1.15,2013-01-18 21:42:00,
2013-01-18 14:52:00,51.9,16.2,30.34,SSW,209,4.0,4.0,24,0.00,,,0.00,Wunderground v.1.15,2013-01-18 21:52:00,
2013-01-18 15:02:00,52.3,16.5,30.34,WSW,252,4.0,4.0,24,0.00,,,0.00,Wunderground v.1.15,2013-01-18 22:02:00,
2013-01-18 15:12:00,52.6,15.8,30.34,South,169,3.0,3.0,23,0.00,,,0.00,Wunderground v.1.15,2013-01-18 22:12:00,
2013-01-18 15:22:00,52.9,16.1,30.34,SW,217,2.0,5.0,23,0.00,,,0.00,Wunderground v.1.15,2013-01-18 22:22:00,
2013-01-18 15:32:00,52.6,15.8,30.33,WSW,254,3.0,6.0,23,0.00,,,0.00,Wunderground v.1.15,2013-01-18 22:32:00,
2013-01-18 15:42:00,52.9,16.1,30.33,South,182,3.0,3.0,23,0.00,,,0.00,Wunderground v.1.15,2013-01-18 22:42:00,
2013-01-18 15:52:00,53.1,16.2,30.33,SSW,205,3.0,4.0,23,0.00,,,0.00,Wunderground v.1.15,2013-01-18 22:52:00,
2013-01-18 16:02:00,52.5,15.7,30.33,SSW,206,3.0,3.0,23,0.00,,,0.00,Wunderground v.1.15,2013-01-18 23:02:00,
2013-01-18 16:12:00,52.0,15.3,30.33,South,177,2.0,2.0,23,0.00,,,0.00,Wunderground v.1.15,2013-01-18 23:12:00,
2013-01-18 16:22:00,51.6,15.9,30.33,South,176,3.0,6.0,24,0.00,,,0.00,Wunderground v.1.15,2013-01-18 23:22:00,
2013-01-18 16:32:00,51.4,15.8,30.33,SSW,194,3.0,8.0,24,0.00,,,0.00,Wunderground v.1.15,2013-01-18 23:32:00,
2013-01-18 16:42:00,51.0,15.4,30.33,SSW,193,2.0,2.0,24,0.00,,,0.00,Wunderground v.1.15,2013-01-18 23:42:00,
2013-01-18 16:52:00,50.8,15.2,30.33,SW,214,1.0,1.0,24,0.00,,,0.00,Wunderground v.1.15,2013-01-18 23:52:00,
2013-01-18 17:02:00,50.4,14.9,30.33,SSW,209,0.0,1.0,24,0.00,,,0.00,Wunderground v.1.15,2013-01-19 00:02:00,
2013-01-18 17:12:00,48.8,15.4,30.33,SSW,209,0.0,2.0,26,0.00,,,0.00,Wunderground v.1.15,2013-01-19 00:12:00,
2013-01-18 17:22:00,47.3,15.0,30.33,SSW,209,0.0,0.0,27,0.00,,,0.00,Wunderground v.1.15,2013-01-19 00:22:00,
2013-01-18 17:32:00,46.2,14.8,30.34,SSW,209,0.0,0.0,28,0.00,,,0.00,Wunderground v.1.15,2013-01-19 00:32:00,
2013-01-18 17:42:00,45.4,14.1,30.34,SW,215,0.0,0.0,28,0.00,,,0.00,Wunderground v.1.15,2013-01-19 00:42:00,
2013-01-18 17:52:00,44.1,14.6,30.34,SW,215,0.0,0.0,30,0.00,,,0.00,Wunderground v.1.15,2013-01-19 00:52:00,
2013-01-18 18:02:00,43.2,14.6,30.34,SW,217,0.0,0.0,31,0.00,,,0.00,Wunderground v.1.15,2013-01-19 01:02:00,
2013-01-18 18:12:00,42.5,14.7,30.34,SW,217,0.0,0.0,32,0.00,,,0.00,Wunderground v.1.15,2013-01-19 01:12:00,
2013-01-18 18:22:00,41.2,14.9,30.34,SW,217,0.0,0.0,34,0.00,,,0.00,Wunderground v.1.15,2013-01-19 01:22:00,
2013-01-18 18:32:00,39.6,14.8,30.35,SW,217,0.0,0.0,36,0.00,,,0.00,Wunderground v.1.15,2013-01-19 01:32:00,
2013-01-18 18:42:00,38.6,15.7,30.35,SW,217,0.0,0.0,39,0.00,,,0.00,Wunderground v.1.15,2013-01-19 01:42:00,
2013-01-18 18:52:00,38.3,15.5,30.35,SW,217,0.0,0.0,39,0.00,,,0.00,Wunderground v.1.15,2013-01-19 01:52:00,
2013-01-18 19:02:00,37.0,14.9,30.35,SW,217,0.0,0.0,40,0.00,,,0.00,Wunderground v.1.15,2013-01-19 02:02:00,
2013-01-18 19:12:00,35.8,14.9,30.35,SW,217,0.0,0.0,42,0.00,,,0.00,Wunderground v.1.15,2013-01-19 02:12:00,
2013-01-18 19:22:00,35.0,15.3,30.35,SW,217,0.0,0.0,44,0.00,,,0.00,Wunderground v.1.15,2013-01-19 02:22:00,
2013-01-18 19:32:00,34.4,15.2,30.35,SW,217,0.0,0.0,45,0.00,,,0.00,Wunderground v.1.15,2013-01-19 02:32:00,
2013-01-18 19:42:00,34.1,15.5,30.35,SW,217,0.0,0.0,46,0.00,,,0.00,Wunderground v.1.15,2013-01-19 02:42:00,
2013-01-18 19:52:00,33.1,15.5,30.35,SW,217,0.0,0.0,48,0.00,,,0.00,Wunderground v.1.15,2013-01-19 02:52:00,
2013-01-18 20:12:00,31.2,15.6,30.35,SSE,161,0.0,0.0,52,0.00,,,0.00,Wunderground v.1.15,2013-01-19 03:12:00,
2013-01-18 20:22:00,31.5,15.9,30.36,West,265,0.0,0.0,52,0.00,,,0.00,Wunderground v.1.15,2013-01-19 03:22:00,
2013-01-18 20:32:00,32.9,15.8,30.35,West,265,0.0,0.0,49,0.00,,,0.00,Wunderground v.1.15,2013-01-19 03:32:00,
2013-01-18 20:42:00,34.9,16.7,30.35,NW,315,0.0,2.0,47,0.00,,,0.00,Wunderground v.1.15,2013-01-19 03:42:00,
2013-01-18 20:52:00,36.3,17.0,30.35,NW,307,1.0,1.0,45,0.00,,,0.00,Wunderground v.1.15,2013-01-19 03:52:00,
2013-01-18 21:02:00,35.5,16.2,30.36,NW,320,0.0,0.0,45,0.00,,,0.00,Wunderground v.1.15,2013-01-19 04:02:00,
2013-01-18 21:12:00,34.9,16.7,30.36,NW,314,1.0,3.0,47,0.00,,,0.00,Wunderground v.1.15,2013-01-19 04:12:00,
2013-01-18 21:22:00,37.3,16.8,30.36,WNW,300,3.0,5.0,43,0.00,,,0.00,Wunderground v.1.15,2013-01-19 04:22:00,
2013-01-18 21:32:00,37.9,17.4,30.35,NW,308,3.0,3.0,43,0.00,,,0.00,Wunderground v.1.15,2013-01-19 04:32:00,
2013-01-18 21:42:00,37.5,17.0,30.35,NW,321,3.0,6.0,43,0.00,,,0.00,Wunderground v.1.15,2013-01-19 04:42:00,
2013-01-18 21:52:00,36.6,16.7,30.36,NW,318,1.0,1.0,44,0.00,,,0.00,Wunderground v.1.15,2013-01-19 04:52:00,
2013-01-18 22:12:00,33.4,15.8,30.36,North,355,0.0,3.0,48,0.00,,,0.00,Wunderground v.1.15,2013-01-19 05:12:00,
2013-01-18 22:22:00,31.6,15.5,30.36,North,355,0.0,0.0,51,0.00,,,0.00,Wunderground v.1.15,2013-01-19 05:22:00,
2013-01-18 22:32:00,30.1,15.0,30.36,North,355,0.0,0.0,53,0.00,,,0.00,Wunderground v.1.15,2013-01-19 05:32:00,
2013-01-18 22:42:00,29.0,14.8,30.36,North,355,0.0,0.0,55,0.00,,,0.00,Wunderground v.1.15,2013-01-19 05:42:00,
2013-01-18 22:52:00,27.8,14.5,30.37,North,355,0.0,0.0,57,0.00,,,0.00,Wunderground v.1.15,2013-01-19 05:52:00,
2013-01-18 23:02:00,27.2,15.1,30.37,North,355,0.0,0.0,60,0.00,,,0.00,Wunderground v.1.15,2013-01-19 06:02:00,
2013-01-18 23:12:00,26.9,14.9,30.37,North,355,0.0,0.0,60,0.00,,,0.00,Wunderground v.1.15,2013-01-19 06:12:00,
2013-01-18 23:22:00,26.6,14.9,30.37,North,355,0.0,0.0,61,0.00,,,0.00,Wunderground v.1.15,2013-01-19 06:22:00,
2013-01-18 23:32:00,27.2,15.9,30.37,North,355,0.0,0.0,62,0.00,,,0.00,Wunderground v.1.15,2013-01-19 06:32:00,
2013-01-18 23:42:00,27.5,15.8,30.37,North,355,0.0,0.0,61,0.00,,,0.00,Wunderground v.1.15,2013-01-19 06:42:00,
2013-01-18 23:52:00,27.0,15.7,30.37,North,355,0.0,0.0,62,0.00,,,0.00,Wunderground v.1.15,2013-01-19 06:52:00,